Time;durP1;ratioP1;P1;durP2;ratioP2;P2;SDS_P1;SDS_P2;PMS_P1;PMS_P2;Temp;Humidity;BMP_temperature;BMP_pressure;BME280_temperature;BME280_humidity;BME280_pressure;Samples;Min_cycle;Max_cycle;Signal;HPM_P1;HPM_P2
2021/11/08 00:01:27;;;;;;;;;;;;;;;5.86;96.06;96426.16;5077509;28;19913;-81
2021/11/08 00:03:52;;;;;;;;;;;;;;;5.88;95.62;96412.94;5075577;28;19944;-83
2021/11/08 00:06:19;;;;;;;;;;;;;;;5.90;95.84;96416.13;5073205;28;20277;-83
2021/11/08 00:08:44;;;;;;;;;;;;;;;5.89;94.91;96424.97;5055799;28;19925;-83
2021/11/08 00:11:10;;;;;;;;;;;;;;;5.84;95.99;96412.53;5072115;28;19931;-83
2021/11/08 00:13:37;;;;;;;;;;;;;;;5.82;96.60;96419.75;5053953;28;19925;-84
2021/11/08 00:21:04;;;;;;;;;;;;;;;5.89;96.79;96427.59;5070687;28;19925;-84
2021/11/08 00:23:32;;;;;;;;;;;;;;;5.79;97.52;96428.78;5070928;28;20015;-84
2021/11/08 00:25:57;;;;;;;;;;;;;;;5.83;97.63;96431.81;5070220;28;20420;-83
2021/11/08 00:28:24;;;;;;;;;;;;;;;5.86;97.49;96433.19;5071677;28;19924;-82
2021/11/08 00:30:50;;;;;;;;;;;;;;;5.78;96.99;96434.22;5077232;28;19913;-81
2021/11/08 00:33:16;;;;;;;;;;;;;;;5.81;97.59;96433.78;5076602;28;19940;-81
2021/11/08 00:35:44;;;;;;;;;;;;;;;5.81;97.92;96431.19;5073298;28;19992;-83
2021/11/08 00:38:09;;;;;;;;;;;;;;;5.83;97.47;96421.34;5071752;28;19939;-84
2021/11/08 00:40:35;;;;;;;;;;;;;;;5.69;98.44;96430.19;5070485;28;19928;-83
2021/11/08 00:43:01;;;;;;;;;;;;;;;5.63;98.37;96423.16;5071062;28;19928;-84
2021/11/08 00:45:26;;;;;;;;;;;;;;;5.69;97.95;96433.59;5069734;28;19929;-84
2021/11/08 00:47:52;;;;;;;;;;;;;;;5.70;98.10;96432.56;5071848;28;19988;-83
2021/11/08 00:50:20;;;;;;;;;;;;;;;5.71;97.87;96429.00;5075497;28;20046;-82
2021/11/08 00:52:48;;;;;;;;;;;;;;;5.71;98.37;96434.22;5075307;28;19925;-82
2021/11/08 00:55:14;;;;;;;;;;;;;;;5.69;98.58;96430.97;5075290;28;19924;-82
2021/11/08 00:57:41;;;;;;;;;;;;;;;5.70;98.65;96432.56;5075692;28;19929;-82
2021/11/08 01:00:08;;;;;;;;;;;;;;;5.75;97.63;96426.75;5074197;28;19960;-83
2021/11/08 01:02:33;;;;;;;;;;;;;;;5.73;98.29;96434.00;5059964;28;19929;-81
2021/11/08 01:05:00;;;;;;;;;;;;;;;5.74;97.71;96422.56;5080158;28;19913;-81
2021/11/08 01:07:25;;;;;;;;;;;;;;;5.73;97.58;96421.75;5078133;28;19913;-82
2021/11/08 01:09:52;;;;;;;;;;;;;;;5.72;97.78;96424.56;5058597;28;19912;-82
2021/11/08 01:12:17;;;;;;;;;;;;;;;5.68;98.35;96429.38;5074108;28;19948;-82
2021/11/08 01:14:44;;;;;;;;;;;;;;;5.71;98.61;96441.25;5072093;28;19931;-83
2021/11/08 01:17:09;;;;;;;;;;;;;;;5.86;97.66;96439.22;5073437;28;19940;-83
2021/11/08 01:19:36;;;;;;;;;;;;;;;5.79;98.20;96435.81;5073390;28;20412;-84
2021/11/08 01:22:13;;;;;;;;;;;;;;;5.74;98.68;96433.00;5054464;28;19978;-81
2021/11/08 01:24:39;;;;;;;;;;;;;;;5.68;98.64;96433.78;5104376;22;19931;-79
2021/11/08 01:27:06;;;;;;;;;;;;;;;5.70;98.07;96431.78;5090039;28;20015;-80
2021/11/08 01:29:32;;;;;;;;;;;;;;;5.66;98.11;96435.81;5077304;28;20023;-80
2021/11/08 01:32:00;;;;;;;;;;;;;;;5.66;98.42;96435.81;5076652;28;19960;-80
2021/11/08 01:34:26;;;;;;;;;;;;;;;5.66;97.98;96425.38;5079283;28;19932;-81
2021/11/08 01:36:54;;;;;;;;;;;;;;;5.70;96.97;96447.44;5078834;28;19929;-81
2021/11/08 01:39:24;;;;;;;;;;;;;;;5.71;96.38;96443.84;5076938;28;19924;-81
2021/11/08 01:41:49;;;;;;;;;;;;;;;5.67;95.13;96446.03;5077160;28;19924;-81
2021/11/08 01:44:16;;;;;;;;;;;;;;;5.69;96.04;96443.22;5076461;28;19992;-79
2021/11/08 01:46:42;;;;;;;;;;;;;;;5.69;97.03;96456.28;5078562;28;19924;-80
2021/11/08 01:49:08;;;;;;;;;;;;;;;5.71;97.73;96459.50;5077329;28;20015;-79
2021/11/08 01:51:35;;;;;;;;;;;;;;;5.73;97.43;96462.72;5089004;28;19924;-80
2021/11/08 01:54:05;;;;;;;;;;;;;;;5.67;96.85;96458.28;5095686;28;20203;-79
2021/11/08 01:56:33;;;;;;;;;;;;;;;5.67;96.77;96455.69;5096517;28;19928;-79
2021/11/08 01:59:01;;;;;;;;;;;;;;;5.74;96.67;96453.88;5092439;28;19924;-80
2021/11/08 02:01:28;;;;;;;;;;;;;;;5.68;96.70;96449.44;5078968;28;19982;-80
2021/11/08 02:03:54;;;;;;;;;;;;;;;5.60;97.03;96458.28;5078293;28;19935;-80
2021/11/08 02:06:21;;;;;;;;;;;;;;;5.52;97.10;96446.22;5076579;28;19924;-79
2021/11/08 02:08:47;;;;;;;;;;;;;;;5.51;96.31;96444.59;5077782;28;20372;-80
2021/11/08 02:11:13;;;;;;;;;;;;;;;5.49;97.01;96445.81;5076413;28;20015;-79
2021/11/08 02:13:39;;;;;;;;;;;;;;;5.37;97.77;96458.59;5086743;28;19952;-80
2021/11/08 02:16:07;;;;;;;;;;;;;;;5.37;98.33;96463.81;5080745;28;19925;-80
2021/11/08 02:18:35;;;;;;;;;;;;;;;5.33;99.14;96467.00;5081313;28;19924;-79
2021/11/08 02:21:06;;;;;;;;;;;;;;;5.38;98.69;96475.91;5080906;28;19990;-80
2021/11/08 02:23:32;;;;;;;;;;;;;;;5.31;98.88;96459.41;5078477;28;19948;-79
2021/11/08 02:26:01;;;;;;;;;;;;;;;5.22;98.93;96464.00;5078417;28;19949;-80
2021/11/08 02:28:27;;;;;;;;;;;;;;;5.35;98.64;96465.03;5079592;28;19924;-80
2021/11/08 02:30:56;;;;;;;;;;;;;;;5.25;97.91;96458.38;5079340;28;20375;-81
2021/11/08 02:33:25;;;;;;;;;;;;;;;5.24;98.08;96454.16;5078166;28;19924;-81
2021/11/08 02:35:51;;;;;;;;;;;;;;;5.12;98.65;96447.91;5077138;28;19932;-80
2021/11/08 02:38:30;;;;;;;;;;;;;;;4.99;98.40;96451.25;5078410;28;19931;-80
2021/11/08 02:40:57;;;;;;;;;;;;;;;4.88;99.83;96454.41;5079403;28;20297;-81
2021/11/08 02:43:25;;;;;;;;;;;;;;;4.78;100.00;96456.56;5077683;28;19944;-80
2021/11/08 02:45:57;;;;;;;;;;;;;;;4.71;100.00;96450.53;5078773;28;20023;-81
2021/11/08 02:48:22;;;;;;;;;;;;;;;4.63;100.00;96461.94;5077832;28;19924;-80
2021/11/08 02:50:54;;;;;;;;;;;;;;;4.52;100.00;96457.25;5078685;28;19977;-80
2021/11/08 02:53:23;;;;;;;;;;;;;;;4.48;100.00;96463.84;5077329;28;19993;-80
2021/11/08 02:55:50;;;;;;;;;;;;;;;4.47;100.00;96473.44;5078805;28;19924;-81
2021/11/08 02:58:19;;;;;;;;;;;;;;;4.60;100.00;96466.69;5078602;28;19954;-80
2021/11/08 03:00:45;;;;;;;;;;;;;;;4.63;100.00;96468.94;5078437;28;19970;-81
2021/11/08 03:03:13;;;;;;;;;;;;;;;4.58;100.00;96453.88;5077485;28;20149;-80
2021/11/08 03:05:39;;;;;;;;;;;;;;;4.48;100.00;96456.03;5096981;28;19913;-80
2021/11/08 03:08:05;;;;;;;;;;;;;;;4.38;100.00;96461.56;5096168;28;19943;-81
2021/11/08 03:10:33;;;;;;;;;;;;;;;4.31;100.00;96468.53;5095649;28;19943;-79
2021/11/08 03:13:06;;;;;;;;;;;;;;;4.25;100.00;96479.72;5095038;28;19984;-79
2021/11/08 03:15:46;;;;;;;;;;;;;;;4.18;100.00;96473.63;5095354;28;19997;-80
2021/11/08 03:18:25;;;;;;;;;;;;;;;4.09;100.00;96477.34;5096021;28;19923;-79
2021/11/08 03:20:50;;;;;;;;;;;;;;;4.06;100.00;96469.94;5078723;28;20411;-80
2021/11/08 03:23:16;;;;;;;;;;;;;;;4.17;100.00;96472.03;5078797;28;19948;-80
2021/11/08 03:25:50;;;;;;;;;;;;;;;4.38;100.00;96471.19;5079232;28;20347;-80
2021/11/08 03:28:17;;;;;;;;;;;;;;;4.54;100.00;96477.91;5079919;28;20004;-80
2021/11/08 03:30:47;;;;;;;;;;;;;;;4.57;100.00;96469.69;5077924;28;19999;-80
2021/11/08 03:33:16;;;;;;;;;;;;;;;4.56;100.00;96478.50;5078807;28;19971;-79
2021/11/08 03:35:42;;;;;;;;;;;;;;;4.45;100.00;96472.81;5077874;28;20289;-80
2021/11/08 03:38:09;;;;;;;;;;;;;;;4.34;100.00;96483.75;5078549;28;19985;-80
2021/11/08 03:40:36;;;;;;;;;;;;;;;4.20;100.00;96482.06;5077661;28;19925;-80
2021/11/08 03:43:05;;;;;;;;;;;;;;;4.12;100.00;96480.41;5078834;28;19924;-80
2021/11/08 03:45:31;;;;;;;;;;;;;;;4.02;100.00;96476.50;5079121;28;19986;-80
2021/11/08 03:47:58;;;;;;;;;;;;;;;3.90;100.00;96476.22;5077555;28;20396;-80
2021/11/08 03:50:27;;;;;;;;;;;;;;;3.84;100.00;96476.97;5078354;28;19925;-79
2021/11/08 03:52:53;;;;;;;;;;;;;;;3.79;100.00;96484.50;5082524;28;19925;-79
2021/11/08 03:55:19;;;;;;;;;;;;;;;3.74;100.00;96481.66;5080771;28;20021;-80
2021/11/08 03:57:46;;;;;;;;;;;;;;;3.65;100.00;96478.38;5077537;28;19924;-80
2021/11/08 04:00:15;;;;;;;;;;;;;;;3.57;100.00;96475.91;5085820;28;19960;-80
2021/11/08 04:02:43;;;;;;;;;;;;;;;3.50;100.00;96478.44;5086255;28;20400;-80
2021/11/08 04:05:11;;;;;;;;;;;;;;;3.48;100.00;96477.00;5080227;28;19953;-80
2021/11/08 04:07:37;;;;;;;;;;;;;;;3.47;100.00;96484.00;5079166;28;19928;-80
2021/11/08 04:10:03;;;;;;;;;;;;;;;3.38;100.00;96478.09;5078736;28;20445;-80
2021/11/08 04:12:29;;;;;;;;;;;;;;;3.22;100.00;96483.50;5078771;28;20392;-80
2021/11/08 04:14:54;;;;;;;;;;;;;;;3.06;100.00;96489.72;5083063;28;19932;-80
2021/11/08 04:17:24;;;;;;;;;;;;;;;3.16;100.00;96486.84;5080408;28;20303;-80
2021/11/08 04:19:50;;;;;;;;;;;;;;;3.19;100.00;96486.50;5081337;28;19924;-79
2021/11/08 04:22:16;;;;;;;;;;;;;;;3.24;100.00;96494.56;5082449;28;19985;-79
2021/11/08 04:24:47;;;;;;;;;;;;;;;3.34;100.00;96497.66;5079320;28;19924;-80
2021/11/08 04:27:13;;;;;;;;;;;;;;;3.27;100.00;96496.78;5078665;28;19978;-80
2021/11/08 04:29:41;;;;;;;;;;;;;;;3.24;100.00;96506.75;5080055;28;19924;-80
2021/11/08 04:32:07;;;;;;;;;;;;;;;3.29;100.00;96505.22;5079879;28;20503;-80
2021/11/08 04:34:44;;;;;;;;;;;;;;;3.20;100.00;96506.28;5079192;28;19932;-79
2021/11/08 04:40:06;;;;;;;;;;;;;;;2.93;100.00;96514.75;5085417;28;19934;-80
2021/11/08 04:47:57;;;;;;;;;;;;;;;2.81;100.00;96507.41;5079106;28;20451;-80
2021/11/08 04:53:36;;;;;;;;;;;;;;;2.61;100.00;96511.53;5057289;28;19929;-80
2021/11/08 05:31:37;;;;;;;;;;;;;;;1.90;100.00;96523.19;5078491;28;20419;-81
2021/11/08 05:34:02;;;;;;;;;;;;;;;1.84;100.00;96533.28;5078010;28;19924;-80
2021/11/08 05:36:27;;;;;;;;;;;;;;;1.86;100.00;96532.28;5078625;28;19931;-81
2021/11/08 05:38:57;;;;;;;;;;;;;;;1.81;100.00;96543.16;5080920;28;19925;-79
2021/11/08 05:41:22;;;;;;;;;;;;;;;1.83;100.00;96534.25;5096595;28;19929;-80
2021/11/08 05:43:48;;;;;;;;;;;;;;;1.95;100.00;96539.03;5095020;28;19935;-79
2021/11/08 05:46:13;;;;;;;;;;;;;;;1.90;100.00;96534.38;5087745;28;20021;-81
2021/11/08 05:48:38;;;;;;;;;;;;;;;1.93;100.00;96533.19;5080373;28;20403;-79
2021/11/08 05:51:07;;;;;;;;;;;;;;;1.82;100.00;96532.63;5081469;28;19932;-79
2021/11/08 05:53:34;;;;;;;;;;;;;;;1.82;100.00;96540.41;5085889;28;20396;-81
2021/11/08 06:50:23;;;;;;;;;;;;;;;2.08;100.00;96588.56;5077513;28;20015;-79
2021/11/08 06:52:50;;;;;;;;;;;;;;;2.24;100.00;96609.19;5077660;28;19951;-80
2021/11/08 06:55:16;;;;;;;;;;;;;;;2.39;100.00;96603.25;5076483;28;19932;-80
2021/11/08 06:57:47;;;;;;;;;;;;;;;2.48;100.00;96610.00;5075964;28;19928;-79
2021/11/08 07:00:15;;;;;;;;;;;;;;;2.65;100.00;96595.09;5077709;28;19931;-80
2021/11/08 07:02:43;;;;;;;;;;;;;;;2.72;100.00;96612.38;5076644;28;20455;-80
2021/11/08 07:05:08;;;;;;;;;;;;;;;2.70;100.00;96603.97;5077535;28;19928;-79
2021/11/08 07:07:34;;;;;;;;;;;;;;;2.70;100.00;96609.16;5084401;28;19946;-78
2021/11/08 07:10:00;;;;;;;;;;;;;;;2.77;100.00;96617.84;5095245;28;19925;-80
2021/11/08 07:12:25;;;;;;;;;;;;;;;2.75;100.00;96622.44;5094990;28;19919;-80
2021/11/08 07:14:51;;;;;;;;;;;;;;;2.84;99.90;96621.34;5094763;28;19947;-80
2021/11/08 07:17:17;;;;;;;;;;;;;;;2.82;100.00;96623.34;5082245;28;19929;-80
2021/11/08 07:19:43;;;;;;;;;;;;;;;2.89;100.00;96629.41;5080607;28;19961;-80
2021/11/08 07:22:30;;;;;;;;;;;;;;;2.99;100.00;96634.38;5081338;28;19924;-81
2021/11/08 07:24:56;;;;;;;;;;;;;;;3.06;100.00;96637.06;5097928;22;19954;-76
2021/11/08 07:27:22;;;;;;;;;;;;;;;3.16;100.00;96624.63;5072765;28;20086;-75
2021/11/08 07:29:47;;;;;;;;;;;;;;;3.35;100.00;96633.69;5074204;28;20391;-76
2021/11/08 07:32:12;;;;;;;;;;;;;;;3.54;100.00;96633.13;5072726;28;19924;-76
2021/11/08 07:34:39;;;;;;;;;;;;;;;3.79;100.00;96631.03;5074010;28;20070;-76
2021/11/08 07:37:06;;;;;;;;;;;;;;;4.16;99.25;96626.63;5055791;28;20007;-77
2021/11/08 07:39:31;;;;;;;;;;;;;;;4.34;99.11;96624.41;5074321;28;19924;-76
2021/11/08 07:41:57;;;;;;;;;;;;;;;4.50;97.09;96631.16;5074428;28;19931;-77
2021/11/08 07:44:22;;;;;;;;;;;;;;;4.79;96.86;96632.81;5091456;28;19924;-75
2021/11/08 07:46:50;;;;;;;;;;;;;;;4.95;95.18;96627.31;5095958;28;19935;-76
2021/11/08 07:49:18;;;;;;;;;;;;;;;5.05;94.49;96634.00;5095624;28;19928;-74
2021/11/08 07:51:46;;;;;;;;;;;;;;;5.15;94.68;96630.03;5096105;28;19925;-74
2021/11/08 07:54:12;;;;;;;;;;;;;;;5.21;94.64;96636.31;5078598;28;19931;-76
2021/11/08 07:56:37;;;;;;;;;;;;;;;5.15;92.11;96634.47;5075760;28;20279;-76
2021/11/08 07:59:02;;;;;;;;;;;;;;;5.06;91.49;96631.22;5075431;28;19931;-77
2021/11/08 08:01:28;;;;;;;;;;;;;;;5.10;93.17;96634.22;5075575;28;19931;-76
2021/11/08 08:03:53;;;;;;;;;;;;;;;5.17;91.84;96630.69;5056757;28;20408;-76
2021/11/08 08:06:19;;;;;;;;;;;;;;;5.27;91.02;96625.09;5073867;28;19924;-77
2021/11/08 08:08:49;;;;;;;;;;;;;;;5.14;90.42;96625.84;5056353;28;19924;-77
2021/11/08 08:11:15;;;;;;;;;;;;;;;5.09;90.04;96630.00;5074229;28;19929;-77
2021/11/08 08:13:40;;;;;;;;;;;;;;;5.11;89.64;96620.19;5074147;28;19929;-76
2021/11/08 08:16:08;;;;;;;;;;;;;;;5.06;89.67;96622.56;5074421;28;20023;-77
2021/11/08 08:18:37;;;;;;;;;;;;;;;5.08;91.00;96620.59;5056643;28;19932;-77
2021/11/08 08:21:02;;;;;;;;;;;;;;;5.12;89.01;96619.22;5056410;28;19924;-76
2021/11/08 08:23:30;;;;;;;;;;;;;;;5.16;89.72;96612.59;5061407;28;19950;-75
2021/11/08 08:25:59;;;;;;;;;;;;;;;5.18;87.36;96615.84;5090827;28;19931;-75
2021/11/08 08:28:25;;;;;;;;;;;;;;;5.39;85.49;96617.56;5056972;28;19931;-77
2021/11/08 08:30:51;;;;;;;;;;;;;;;5.37;84.51;96615.13;5076363;28;19968;-77
2021/11/08 08:33:16;;;;;;;;;;;;;;;5.43;84.70;96619.56;5076642;28;19932;-76
2021/11/08 08:35:42;;;;;;;;;;;;;;;5.60;83.00;96616.66;5056838;28;19925;-77
2021/11/08 08:38:08;;;;;;;;;;;;;;;5.64;82.04;96612.66;5075001;28;19924;-77
2021/11/08 08:40:34;;;;;;;;;;;;;;;5.66;81.04;96606.25;5078871;28;19933;-77
2021/11/08 08:43:01;;;;;;;;;;;;;;;5.59;81.02;96601.97;5074195;28;19931;-77
2021/11/08 08:45:28;;;;;;;;;;;;;;;5.65;81.87;96612.47;5074067;28;19935;-77
2021/11/08 08:47:56;;;;;;;;;;;;;;;5.66;81.61;96600.22;5074327;28;19924;-77
2021/11/08 08:50:22;;;;;;;;;;;;;;;5.70;81.61;96609.25;5055378;28;19974;-77
2021/11/08 08:52:47;;;;;;;;;;;;;;;5.71;80.13;96610.88;5073110;28;19928;-77
2021/11/08 08:55:13;;;;;;;;;;;;;;;5.73;81.94;96608.88;5073327;28;20475;-77
2021/11/08 08:57:40;;;;;;;;;;;;;;;5.78;83.17;96609.09;5073193;28;19924;-76
2021/11/08 09:00:10;;;;;;;;;;;;;;;5.89;80.26;96602.50;5074636;28;19924;-77
2021/11/08 09:02:38;;;;;;;;;;;;;;;5.89;78.66;96605.91;5073634;28;19996;-77
2021/11/08 09:05:04;;;;;;;;;;;;;;;5.96;79.72;96605.97;5055835;28;20019;-77
2021/11/08 09:07:30;;;;;;;;;;;;;;;6.07;78.79;96605.38;5055266;28;19977;-75
2021/11/08 09:09:55;;;;;;;;;;;;;;;6.15;79.29;96599.19;5057945;28;19925;-76
2021/11/08 09:12:23;;;;;;;;;;;;;;;6.25;78.13;96603.03;5076810;28;20449;-75
2021/11/08 09:14:48;;;;;;;;;;;;;;;6.34;75.98;96608.84;5076864;28;19925;-77
2021/11/08 09:17:15;;;;;;;;;;;;;;;6.24;76.52;96605.81;5077470;28;19954;-76
2021/11/08 09:19:41;;;;;;;;;;;;;;;6.45;74.87;96610.88;5076894;28;20019;-77
2021/11/08 09:22:08;;;;;;;;;;;;;;;6.44;76.32;96608.47;5077460;28;19960;-76
2021/11/08 09:24:34;;;;;;;;;;;;;;;6.68;75.79;96609.72;5091134;28;19922;-75
2021/11/08 09:27:00;;;;;;;;;;;;;;;6.65;74.84;96612.72;5085636;28;19972;-78
2021/11/08 09:29:26;;;;;;;;;;;;;;;6.54;74.85;96609.69;5077596;28;20415;-77
2021/11/08 09:31:52;;;;;;;;;;;;;;;6.49;73.71;96614.72;5077840;28;19960;-76
2021/11/08 09:34:21;;;;;;;;;;;;;;;6.68;74.06;96607.91;5060211;28;20304;-74
2021/11/08 09:36:48;;;;;;;;;;;;;;;6.78;73.66;96612.69;5085261;28;19925;-76
2021/11/08 09:39:24;;;;;;;;;;;;;;;6.92;73.17;96614.31;5089209;28;19924;-76
2021/11/08 09:41:50;;;;;;;;;;;;;;;6.76;73.47;96614.72;5090408;28;19924;-76
2021/11/08 09:44:16;;;;;;;;;;;;;;;6.86;72.94;96614.31;5061447;28;19925;-77
2021/11/08 09:46:42;;;;;;;;;;;;;;;7.06;72.26;96615.91;5060216;28;19939;-76
2021/11/08 09:49:08;;;;;;;;;;;;;;;7.19;72.89;96615.09;5077852;28;20342;-76
2021/11/08 09:51:37;;;;;;;;;;;;;;;7.36;73.11;96610.22;5059190;28;19928;-77
2021/11/08 09:54:03;;;;;;;;;;;;;;;7.26;73.99;96626.34;5058707;28;19928;-77
2021/11/08 09:56:28;;;;;;;;;;;;;;;7.21;71.62;96620.09;5075844;28;20303;-77
2021/11/08 09:58:56;;;;;;;;;;;;;;;7.20;71.93;96621.13;5060113;28;19958;-76
2021/11/08 10:01:22;;;;;;;;;;;;;;;7.14;71.87;96627.16;5079881;28;20438;-76
2021/11/08 10:03:50;;;;;;;;;;;;;;;7.28;71.48;96628.78;5076932;28;19928;-76
2021/11/08 10:06:16;;;;;;;;;;;;;;;7.28;71.71;96632.19;5076848;28;20015;-78
2021/11/08 10:08:43;;;;;;;;;;;;;;;7.30;72.35;96622.31;5076567;28;19947;-77
2021/11/08 10:11:10;;;;;;;;;;;;;;;7.27;73.10;96627.16;5075824;28;20407;-77
2021/11/08 10:13:36;;;;;;;;;;;;;;;7.40;73.02;96627.13;5058259;28;19946;-77
2021/11/08 10:16:02;;;;;;;;;;;;;;;7.53;72.83;96621.88;5076459;28;20380;-75
2021/11/08 10:18:28;;;;;;;;;;;;;;;7.50;70.02;96626.72;5059194;28;19924;-77
2021/11/08 10:21:01;;;;;;;;;;;;;;;7.33;69.02;96621.91;5076705;28;20311;-75
2021/11/08 10:23:27;;;;;;;;;;;;;;;7.34;69.68;96626.13;5076903;28;19928;-77
2021/11/08 10:25:55;;;;;;;;;;;;;;;7.24;69.78;96622.31;5077147;28;19924;-74
2021/11/08 10:28:23;;;;;;;;;;;;;;;7.43;68.84;96616.25;5079243;28;19920;-74
2021/11/08 10:30:55;;;;;;;;;;;;;;;7.61;69.41;96619.00;5069155;28;19996;-76
2021/11/08 10:33:22;;;;;;;;;;;;;;;7.68;68.97;96618.19;5059321;28;20007;-77
2021/11/08 10:35:49;;;;;;;;;;;;;;;7.81;68.40;96618.16;5075749;28;19925;-77
2021/11/08 10:38:16;;;;;;;;;;;;;;;7.86;67.10;96624.38;5076974;28;19929;-76
2021/11/08 10:40:45;;;;;;;;;;;;;;;8.01;68.00;96629.31;5076074;28;19928;-78
2021/11/08 10:43:14;;;;;;;;;;;;;;;8.10;67.88;96632.50;5077735;28;20029;-77
2021/11/08 10:45:46;;;;;;;;;;;;;;;8.13;66.67;96626.88;5076505;28;20217;-77
2021/11/08 10:48:17;;;;;;;;;;;;;;;8.37;66.66;96634.00;5075843;28;19966;-77
2021/11/08 10:50:44;;;;;;;;;;;;;;;8.53;66.22;96632.69;5076694;28;19973;-76
2021/11/08 10:53:12;;;;;;;;;;;;;;;8.45;66.81;96625.09;5057964;28;19925;-77
2021/11/08 10:55:37;;;;;;;;;;;;;;;8.83;66.83;96627.66;5057685;28;19925;-77
2021/11/08 10:58:07;;;;;;;;;;;;;;;9.03;64.89;96629.28;5076973;28;19931;-78
2021/11/08 11:00:47;;;;;;;;;;;;;;;8.77;66.04;96627.66;5059206;28;19932;-76
2021/11/08 11:03:13;;;;;;;;;;;;;;;8.97;63.80;96633.56;5058833;28;20020;-77
2021/11/08 11:05:41;;;;;;;;;;;;;;;8.71;64.25;96629.34;5081435;28;20217;-77
2021/11/08 11:08:07;;;;;;;;;;;;;;;8.88;64.96;96637.50;5070306;28;19971;-75
2021/11/08 11:10:34;;;;;;;;;;;;;;;9.09;63.43;96637.09;5090767;28;19925;-76
2021/11/08 11:13:00;;;;;;;;;;;;;;;9.15;64.34;96636.25;5085712;28;19985;-77
2021/11/08 11:15:32;;;;;;;;;;;;;;;9.19;62.12;96633.97;5059916;28;19931;-76
2021/11/08 11:17:59;;;;;;;;;;;;;;;9.11;60.88;96645.56;5076184;28;19928;-76
2021/11/08 11:20:26;;;;;;;;;;;;;;;9.03;62.14;96640.56;5077248;28;19925;-78
2021/11/08 11:23:02;;;;;;;;;;;;;;;8.97;61.16;96638.00;5077461;28;19932;-76
2021/11/08 11:25:28;;;;;;;;;;;;;;;9.04;62.25;96644.00;5076133;28;20395;-78
2021/11/08 11:27:54;;;;;;;;;;;;;;;9.11;61.34;96639.53;5077467;28;19925;-77
2021/11/08 11:30:22;;;;;;;;;;;;;;;9.01;63.27;96640.00;5059769;28;19932;-76
2021/11/08 11:32:55;;;;;;;;;;;;;;;9.07;62.30;96633.88;5058667;28;19931;-77
2021/11/08 11:35:22;;;;;;;;;;;;;;;9.20;61.53;96632.94;5059041;28;19931;-76
2021/11/08 11:37:56;;;;;;;;;;;;;;;9.12;60.41;96635.88;5077548;28;19976;-77
2021/11/08 11:40:23;;;;;;;;;;;;;;;9.33;60.14;96638.09;5077770;28;19972;-75
2021/11/08 11:42:49;;;;;;;;;;;;;;;9.46;60.82;96639.78;5058963;28;20422;-77
2021/11/08 11:45:15;;;;;;;;;;;;;;;9.40;60.74;96638.03;5057966;28;19932;-77
2021/11/08 11:47:40;;;;;;;;;;;;;;;9.56;61.91;96632.19;5057276;28;20358;-77
2021/11/08 11:50:06;;;;;;;;;;;;;;;9.63;61.49;96640.81;5075796;28;19943;-78
2021/11/08 11:52:35;;;;;;;;;;;;;;;9.57;61.83;96639.06;5076610;28;19924;-76
2021/11/08 11:55:00;;;;;;;;;;;;;;;9.22;61.89;96633.56;5075289;28;19931;-76
2021/11/08 11:57:26;;;;;;;;;;;;;;;9.10;61.39;96633.47;5075830;28;20334;-76
2021/11/08 11:59:53;;;;;;;;;;;;;;;8.86;62.27;96642.13;5075992;28;20472;-77
2021/11/08 12:02:19;;;;;;;;;;;;;;;8.86;62.91;96631.66;5078443;28;19932;-76
2021/11/08 12:04:46;;;;;;;;;;;;;;;8.67;63.16;96628.97;5061495;28;20361;-75
2021/11/08 12:07:12;;;;;;;;;;;;;;;8.67;63.63;96628.16;5078804;28;19977;-76
2021/11/08 12:09:39;;;;;;;;;;;;;;;8.64;64.33;96618.91;5079462;28;19959;-77
2021/11/08 12:12:05;;;;;;;;;;;;;;;8.65;63.69;96609.19;5080873;28;19924;-75
2021/11/08 12:14:33;;;;;;;;;;;;;;;8.65;62.86;96617.88;5089518;28;19959;-73
2021/11/08 12:17:01;;;;;;;;;;;;;;;8.85;60.79;96609.06;5094922;28;19920;-76
2021/11/08 12:19:27;;;;;;;;;;;;;;;9.01;61.32;96610.34;5087079;28;19924;-77
2021/11/08 12:21:52;;;;;;;;;;;;;;;8.89;61.49;96599.75;5085554;28;19915;-73
2021/11/08 12:24:21;;;;;;;;;;;;;;;8.97;62.05;96604.72;5081360;28;19956;-77
2021/11/08 12:26:49;;;;;;;;;;;;;;;8.75;61.10;96604.28;5059175;28;20000;-78
2021/11/08 12:29:18;;;;;;;;;;;;;;;8.95;61.87;96604.13;5081139;28;20004;-75
2021/11/08 12:31:44;;;;;;;;;;;;;;;9.08;61.51;96601.38;5078545;28;19913;-73
2021/11/08 12:34:13;;;;;;;;;;;;;;;9.08;61.14;96606.63;5082688;28;19936;-78
2021/11/08 12:36:39;;;;;;;;;;;;;;;9.31;59.10;96598.16;5077385;28;20373;-77
2021/11/08 12:39:06;;;;;;;;;;;;;;;9.50;58.83;96596.31;5077751;28;19925;-78
2021/11/08 12:41:34;;;;;;;;;;;;;;;9.90;56.77;96596.66;5059472;28;19956;-77
2021/11/08 12:44:04;;;;;;;;;;;;;;;9.89;57.49;96589.78;5083628;28;20277;-75
2021/11/08 12:46:33;;;;;;;;;;;;;;;10.17;57.41;96589.22;5084086;28;19936;-75
2021/11/08 12:49:04;;;;;;;;;;;;;;;10.19;56.07;96589.00;5064627;28;19925;-76
2021/11/08 12:51:33;;;;;;;;;;;;;;;9.90;55.17;96591.41;5090112;28;19935;-75
2021/11/08 12:54:03;;;;;;;;;;;;;;;10.17;55.16;96583.97;5084678;28;19935;-76
2021/11/08 12:56:29;;;;;;;;;;;;;;;9.82;55.74;96598.78;5083989;28;19949;-78
2021/11/08 12:59:00;;;;;;;;;;;;;;;9.85;56.43;96593.09;5082987;28;19999;-77
2021/11/08 13:01:37;;;;;;;;;;;;;;;9.58;55.90;96598.66;5082003;28;19979;-77
2021/11/08 13:04:06;;;;;;;;;;;;;;;9.43;55.75;96595.59;5081711;28;19931;-76
2021/11/08 13:06:33;;;;;;;;;;;;;;;9.04;56.10;96594.97;5082565;28;19925;-77
2021/11/08 13:09:08;;;;;;;;;;;;;;;9.14;56.70;96595.25;5081355;28;20027;-75
2021/11/08 13:11:38;;;;;;;;;;;;;;;9.14;54.65;96600.50;5062982;28;20257;-78
2021/11/08 13:14:05;;;;;;;;;;;;;;;9.04;54.97;96594.97;5088198;28;19983;-76
2021/11/08 13:16:31;;;;;;;;;;;;;;;9.20;55.43;96593.59;5098107;28;19970;-74
2021/11/08 13:19:02;;;;;;;;;;;;;;;9.06;56.46;96590.31;5099791;28;19980;-75
2021/11/08 13:21:29;;;;;;;;;;;;;;;9.26;57.49;96594.56;5097849;28;19928;-76
2021/11/08 13:23:55;;;;;;;;;;;;;;;9.51;56.15;96592.66;5095761;28;19925;-76
2021/11/08 13:26:20;;;;;;;;;;;;;;;9.66;56.71;96590.47;5112426;22;19924;-84
2021/11/08 13:28:45;;;;;;;;;;;;;;;9.56;56.73;96581.50;5095493;28;19975;-84
2021/11/08 13:31:15;;;;;;;;;;;;;;;9.34;57.06;96586.38;5091566;28;19932;-83
2021/11/08 13:33:42;;;;;;;;;;;;;;;9.27;57.96;96588.28;5074149;28;19948;-83
2021/11/08 13:36:10;;;;;;;;;;;;;;;8.85;58.92;96594.13;5091704;28;20019;-82
2021/11/08 13:38:38;;;;;;;;;;;;;;;9.04;59.41;96581.84;5073640;28;19939;-83
2021/11/08 13:41:05;;;;;;;;;;;;;;;9.16;58.76;96584.56;5093187;28;19924;-82
2021/11/08 13:43:34;;;;;;;;;;;;;;;9.32;58.63;96583.19;5092099;28;19924;-83
2021/11/08 13:46:00;;;;;;;;;;;;;;;9.14;59.77;96587.38;5092112;28;19924;-83
2021/11/08 13:48:28;;;;;;;;;;;;;;;9.34;59.40;96575.88;5055725;28;19913;-84
2021/11/08 13:50:55;;;;;;;;;;;;;;;9.35;58.82;96588.00;5092175;28;19931;-83
2021/11/08 13:53:23;;;;;;;;;;;;;;;9.29;59.82;96584.41;5091740;28;19924;-83
2021/11/08 13:55:49;;;;;;;;;;;;;;;9.10;60.21;96585.44;5072285;28;19990;-84
2021/11/08 13:58:17;;;;;;;;;;;;;;;8.85;59.94;96598.56;5090567;28;20031;-83
2021/11/08 14:00:42;;;;;;;;;;;;;;;8.70;59.84;96598.09;5090565;28;19925;-84
2021/11/08 14:03:11;;;;;;;;;;;;;;;8.53;60.69;96590.75;5093015;28;19931;-83
2021/11/08 14:05:44;;;;;;;;;;;;;;;8.49;61.78;96594.78;5091459;28;20028;-81
2021/11/08 14:08:10;;;;;;;;;;;;;;;8.58;62.69;96603.22;5074799;28;20297;-83
2021/11/08 14:10:36;;;;;;;;;;;;;;;8.36;63.58;96598.31;5091240;28;19924;-84
2021/11/08 14:13:09;;;;;;;;;;;;;;;8.21;63.59;96602.22;5092618;28;19951;-83
2021/11/08 14:15:34;;;;;;;;;;;;;;;8.35;63.30;96606.38;5076479;28;19928;-83
2021/11/08 14:18:00;;;;;;;;;;;;;;;8.62;62.79;96593.91;5092760;28;19935;-82
2021/11/08 14:20:28;;;;;;;;;;;;;;;8.70;61.81;96600.69;5095527;28;19919;-82
2021/11/08 14:22:53;;;;;;;;;;;;;;;8.90;61.35;96606.59;5098460;28;19920;-82
2021/11/08 14:25:18;;;;;;;;;;;;;;;8.91;61.40;96602.94;5092651;28;19930;-83
2021/11/08 14:27:46;;;;;;;;;;;;;;;9.12;61.13;96597.31;5091239;28;19925;-82
2021/11/08 14:30:12;;;;;;;;;;;;;;;8.47;61.88;96606.53;5090322;28;19956;-84
2021/11/08 14:32:38;;;;;;;;;;;;;;;8.34;63.19;96607.38;5090630;28;20007;-85
2021/11/08 14:35:13;;;;;;;;;;;;;;;8.18;63.66;96598.22;5071668;28;19995;-84
2021/11/08 14:37:40;;;;;;;;;;;;;;;8.10;64.77;96607.13;5089876;28;20422;-84
2021/11/08 14:40:14;;;;;;;;;;;;;;;8.04;64.76;96602.72;5091248;28;19924;-83
2021/11/08 14:42:40;;;;;;;;;;;;;;;8.04;64.71;96601.91;5092964;28;19985;-81